sensor_id;sensor_type;location;lat;lon;timestamp;P1;durP1;ratioP1;P2;durP2;ratioP2
84042;SDS011;74129;52.540;13.416;2024-02-21T00:02:11;19.60;;;4.80;;
84042;SDS011;74129;52.540;13.416;2024-02-21T00:04:37;12.40;;;4.90;;
84042;SDS011;74129;52.540;13.416;2024-02-21T00:07:04;14.20;;;4.60;;
84042;SDS011;74129;52.540;13.416;2024-02-21T00:09:31;12.70;;;4.00;;
84042;SDS011;74129;52.540;13.416;2024-02-21T00:11:57;12.80;;;5.10;;
84042;SDS011;74129;52.540;13.416;2024-02-21T00:14:24;16.30;;;5.60;;
84042;SDS011;74129;52.540;13.416;2024-02-21T00:16:51;11.50;;;4.40;;
84042;SDS011;74129;52.540;13.416;2024-02-21T00:19:17;20.10;;;4.60;;
84042;SDS011;74129;52.540;13.416;2024-02-21T00:21:43;14.20;;;4.60;;
84042;SDS011;74129;52.540;13.416;2024-02-21T00:24:10;17.80;;;5.10;;
84042;SDS011;74129;52.540;13.416;2024-02-21T00:26:36;13.50;;;4.60;;
84042;SDS011;74129;52.540;13.416;2024-02-21T00:29:02;12.30;;;4.30;;
84042;SDS011;74129;52.540;13.416;2024-02-21T00:31:29;14.40;;;5.20;;
84042;SDS011;74129;52.540;13.416;2024-02-21T00:33:55;11.10;;;4.20;;
84042;SDS011;74129;52.540;13.416;2024-02-21T00:36:21;12.80;;;4.40;;
84042;SDS011;74129;52.540;13.416;2024-02-21T00:38:48;16.30;;;4.10;;
84042;SDS011;74129;52.540;13.416;2024-02-21T00:41:14;13.80;;;3.90;;
84042;SDS011;74129;52.540;13.416;2024-02-21T00:43:41;13.40;;;4.00;;
84042;SDS011;74129;52.540;13.416;2024-02-21T00:46:08;16.00;;;4.70;;
84042;SDS011;74129;52.540;13.416;2024-02-21T00:48:34;9.00;;;4.00;;
84042;SDS011;74129;52.540;13.416;2024-02-21T00:51:00;14.10;;;4.40;;
84042;SDS011;74129;52.540;13.416;2024-02-21T00:53:27;10.70;;;4.20;;
84042;SDS011;74129;52.540;13.416;2024-02-21T00:55:53;17.40;;;4.60;;
84042;SDS011;74129;52.540;13.416;2024-02-21T00:58:20;16.90;;;4.30;;
84042;SDS011;74129;52.540;13.416;2024-02-21T01:00:46;16.00;;;4.60;;
84042;SDS011;74129;52.540;13.416;2024-02-21T01:03:13;15.80;;;5.40;;
84042;SDS011;74129;52.540;13.416;2024-02-21T01:05:39;10.20;;;4.00;;
84042;SDS011;74129;52.540;13.416;2024-02-21T01:08:05;16.60;;;4.30;;
84042;SDS011;74129;52.540;13.416;2024-02-21T01:10:32;10.60;;;5.10;;
84042;SDS011;74129;52.540;13.416;2024-02-21T01:12:58;13.50;;;3.60;;
84042;SDS011;74129;52.540;13.416;2024-02-21T01:15:24;17.70;;;4.60;;
84042;SDS011;74129;52.540;13.416;2024-02-21T01:17:51;9.70;;;4.10;;
84042;SDS011;74129;52.540;13.416;2024-02-21T01:20:21;16.30;;;4.70;;
84042;SDS011;74129;52.540;13.416;2024-02-21T01:22:47;11.80;;;3.60;;
84042;SDS011;74129;52.540;13.416;2024-02-21T01:25:14;9.90;;;4.10;;
84042;SDS011;74129;52.540;13.416;2024-02-21T01:27:40;13.80;;;3.90;;
84042;SDS011;74129;52.540;13.416;2024-02-21T01:30:07;13.70;;;3.90;;
84042;SDS011;74129;52.540;13.416;2024-02-21T01:32:34;10.90;;;4.00;;
84042;SDS011;74129;52.540;13.416;2024-02-21T01:35:00;10.30;;;4.00;;
84042;SDS011;74129;52.540;13.416;2024-02-21T01:37:26;16.70;;;4.10;;
84042;SDS011;74129;52.540;13.416;2024-02-21T01:39:53;10.50;;;3.90;;
84042;SDS011;74129;52.540;13.416;2024-02-21T01:42:19;12.10;;;4.30;;
84042;SDS011;74129;52.540;13.416;2024-02-21T01:44:45;13.70;;;4.60;;
84042;SDS011;74129;52.540;13.416;2024-02-21T01:47:12;10.00;;;3.60;;
84042;SDS011;74129;52.540;13.416;2024-02-21T01:49:40;11.20;;;3.60;;
84042;SDS011;74129;52.540;13.416;2024-02-21T01:52:07;12.80;;;4.00;;
84042;SDS011;74129;52.540;13.416;2024-02-21T01:54:35;12.50;;;4.10;;
84042;SDS011;74129;52.540;13.416;2024-02-21T01:57:01;18.70;;;4.20;;
84042;SDS011;74129;52.540;13.416;2024-02-21T01:59:28;10.90;;;3.80;;
84042;SDS011;74129;52.540;13.416;2024-02-21T02:01:55;9.60;;;3.30;;
84042;SDS011;74129;52.540;13.416;2024-02-21T02:04:21;10.90;;;3.30;;
84042;SDS011;74129;52.540;13.416;2024-02-21T02:06:49;12.20;;;4.10;;
84042;SDS011;74129;52.540;13.416;2024-02-21T02:09:17;13.00;;;4.60;;
84042;SDS011;74129;52.540;13.416;2024-02-21T02:11:43;13.40;;;3.50;;
84042;SDS011;74129;52.540;13.416;2024-02-21T02:14:09;13.20;;;3.90;;
84042;SDS011;74129;52.540;13.416;2024-02-21T02:16:36;13.00;;;4.40;;
84042;SDS011;74129;52.540;13.416;2024-02-21T02:19:02;12.60;;;4.00;;
84042;SDS011;74129;52.540;13.416;2024-02-21T02:21:29;12.50;;;4.10;;
84042;SDS011;74129;52.540;13.416;2024-02-21T02:23:58;11.80;;;3.60;;
84042;SDS011;74129;52.540;13.416;2024-02-21T02:26:25;9.00;;;4.10;;
84042;SDS011;74129;52.540;13.416;2024-02-21T02:28:51;12.60;;;3.90;;
84042;SDS011;74129;52.540;13.416;2024-02-21T02:31:18;11.20;;;4.30;;
84042;SDS011;74129;52.540;13.416;2024-02-21T02:33:44;10.50;;;3.60;;
84042;SDS011;74129;52.540;13.416;2024-02-21T02:36:10;11.70;;;3.80;;
84042;SDS011;74129;52.540;13.416;2024-02-21T02:38:37;13.00;;;4.10;;
84042;SDS011;74129;52.540;13.416;2024-02-21T02:41:03;15.00;;;3.80;;
84042;SDS011;74129;52.540;13.416;2024-02-21T02:43:29;11.80;;;3.50;;
84042;SDS011;74129;52.540;13.416;2024-02-21T02:45:56;4.90;;;2.80;;
84042;SDS011;74129;52.540;13.416;2024-02-21T02:48:22;12.00;;;3.60;;
84042;SDS011;74129;52.540;13.416;2024-02-21T02:50:48;11.40;;;4.00;;
84042;SDS011;74129;52.540;13.416;2024-02-21T02:53:15;17.10;;;3.90;;
84042;SDS011;74129;52.540;13.416;2024-02-21T02:55:42;12.30;;;4.20;;
84042;SDS011;74129;52.540;13.416;2024-02-21T02:58:08;12.90;;;4.90;;
84042;SDS011;74129;52.540;13.416;2024-02-21T03:00:35;10.90;;;3.30;;
84042;SDS011;74129;52.540;13.416;2024-02-21T03:03:02;11.30;;;3.70;;
84042;SDS011;74129;52.540;13.416;2024-02-21T03:05:31;10.50;;;3.70;;
84042;SDS011;74129;52.540;13.416;2024-02-21T03:07:58;11.50;;;3.90;;
84042;SDS011;74129;52.540;13.416;2024-02-21T03:10:25;15.80;;;4.90;;
84042;SDS011;74129;52.540;13.416;2024-02-21T03:12:51;12.30;;;4.10;;
84042;SDS011;74129;52.540;13.416;2024-02-21T03:15:19;10.00;;;4.40;;
84042;SDS011;74129;52.540;13.416;2024-02-21T03:17:46;14.90;;;4.20;;
84042;SDS011;74129;52.540;13.416;2024-02-21T03:20:12;14.30;;;4.10;;
84042;SDS011;74129;52.540;13.416;2024-02-21T03:22:39;7.50;;;3.80;;
84042;SDS011;74129;52.540;13.416;2024-02-21T03:25:07;15.30;;;4.80;;
84042;SDS011;74129;52.540;13.416;2024-02-21T03:27:36;10.60;;;4.60;;
84042;SDS011;74129;52.540;13.416;2024-02-21T03:30:02;13.20;;;4.10;;
84042;SDS011;74129;52.540;13.416;2024-02-21T03:32:30;12.50;;;4.30;;
84042;SDS011;74129;52.540;13.416;2024-02-21T03:34:56;12.60;;;4.40;;
84042;SDS011;74129;52.540;13.416;2024-02-21T03:37:23;10.90;;;4.10;;
84042;SDS011;74129;52.540;13.416;2024-02-21T03:39:49;11.20;;;3.90;;
84042;SDS011;74129;52.540;13.416;2024-02-21T03:42:16;13.90;;;4.70;;
84042;SDS011;74129;52.540;13.416;2024-02-21T03:44:42;16.10;;;4.80;;
84042;SDS011;74129;52.540;13.416;2024-02-21T03:47:08;19.10;;;5.70;;
84042;SDS011;74129;52.540;13.416;2024-02-21T03:49:37;8.80;;;3.70;;
84042;SDS011;74129;52.540;13.416;2024-02-21T03:52:03;14.10;;;4.40;;
84042;SDS011;74129;52.540;13.416;2024-02-21T03:54:30;12.30;;;4.10;;
84042;SDS011;74129;52.540;13.416;2024-02-21T03:56:56;10.10;;;3.90;;
84042;SDS011;74129;52.540;13.416;2024-02-21T03:59:23;12.40;;;4.90;;
84042;SDS011;74129;52.540;13.416;2024-02-21T04:01:52;12.20;;;5.10;;
84042;SDS011;74129;52.540;13.416;2024-02-21T04:04:19;12.80;;;5.00;;
84042;SDS011;74129;52.540;13.416;2024-02-21T04:06:47;14.90;;;5.50;;
84042;SDS011;74129;52.540;13.416;2024-02-21T04:09:14;12.20;;;4.50;;
84042;SDS011;74129;52.540;13.416;2024-02-21T04:11:41;12.50;;;5.00;;
84042;SDS011;74129;52.540;13.416;2024-02-21T04:14:08;14.50;;;4.40;;
84042;SDS011;74129;52.540;13.416;2024-02-21T04:16:34;11.00;;;4.40;;
84042;SDS011;74129;52.540;13.416;2024-02-21T04:19:01;14.30;;;4.40;;
84042;SDS011;74129;52.540;13.416;2024-02-21T04:21:28;10.30;;;4.60;;
84042;SDS011;74129;52.540;13.416;2024-02-21T04:23:55;12.10;;;4.70;;
84042;SDS011;74129;52.540;13.416;2024-02-21T04:26:21;13.70;;;4.70;;
84042;SDS011;74129;52.540;13.416;2024-02-21T04:28:48;9.40;;;3.70;;
84042;SDS011;74129;52.540;13.416;2024-02-21T04:31:14;11.70;;;4.40;;
84042;SDS011;74129;52.540;13.416;2024-02-21T04:33:40;11.80;;;5.10;;
84042;SDS011;74129;52.540;13.416;2024-02-21T04:36:07;15.30;;;4.90;;
84042;SDS011;74129;52.540;13.416;2024-02-21T04:38:33;13.90;;;4.80;;
84042;SDS011;74129;52.540;13.416;2024-02-21T04:40:59;12.40;;;5.30;;
84042;SDS011;74129;52.540;13.416;2024-02-21T04:43:26;13.30;;;5.90;;
84042;SDS011;74129;52.540;13.416;2024-02-21T04:45:52;11.60;;;5.30;;
84042;SDS011;74129;52.540;13.416;2024-02-21T04:48:19;12.30;;;4.90;;
84042;SDS011;74129;52.540;13.416;2024-02-21T04:50:46;9.90;;;4.90;;
84042;SDS011;74129;52.540;13.416;2024-02-21T04:53:13;12.10;;;4.80;;
84042;SDS011;74129;52.540;13.416;2024-02-21T04:55:39;14.00;;;5.70;;
84042;SDS011;74129;52.540;13.416;2024-02-21T04:58:06;12.30;;;5.10;;
84042;SDS011;74129;52.540;13.416;2024-02-21T05:00:33;13.60;;;5.20;;
84042;SDS011;74129;52.540;13.416;2024-02-21T05:03:00;10.00;;;4.30;;
84042;SDS011;74129;52.540;13.416;2024-02-21T05:05:26;16.80;;;6.20;;
84042;SDS011;74129;52.540;13.416;2024-02-21T05:07:52;15.60;;;5.30;;
84042;SDS011;74129;52.540;13.416;2024-02-21T05:10:19;19.00;;;5.60;;
84042;SDS011;74129;52.540;13.416;2024-02-21T05:12:46;11.00;;;4.90;;
84042;SDS011;74129;52.540;13.416;2024-02-21T05:15:12;8.90;;;4.60;;
84042;SDS011;74129;52.540;13.416;2024-02-21T05:17:39;11.60;;;5.10;;
84042;SDS011;74129;52.540;13.416;2024-02-21T05:20:05;17.50;;;4.80;;
84042;SDS011;74129;52.540;13.416;2024-02-21T05:22:32;16.80;;;6.10;;
84042;SDS011;74129;52.540;13.416;2024-02-21T05:24:59;12.60;;;5.40;;
84042;SDS011;74129;52.540;13.416;2024-02-21T05:27:25;18.00;;;6.00;;
84042;SDS011;74129;52.540;13.416;2024-02-21T05:29:51;15.90;;;6.00;;
84042;SDS011;74129;52.540;13.416;2024-02-21T05:32:19;12.60;;;5.10;;
84042;SDS011;74129;52.540;13.416;2024-02-21T05:34:48;12.00;;;4.80;;
84042;SDS011;74129;52.540;13.416;2024-02-21T05:37:15;16.50;;;5.70;;
84042;SDS011;74129;52.540;13.416;2024-02-21T05:39:42;9.40;;;4.60;;
84042;SDS011;74129;52.540;13.416;2024-02-21T05:42:08;13.00;;;4.90;;
84042;SDS011;74129;52.540;13.416;2024-02-21T05:44:35;9.60;;;4.80;;
84042;SDS011;74129;52.540;13.416;2024-02-21T05:47:01;14.80;;;5.30;;
84042;SDS011;74129;52.540;13.416;2024-02-21T05:49:27;14.70;;;5.70;;
84042;SDS011;74129;52.540;13.416;2024-02-21T05:51:54;17.40;;;5.80;;
84042;SDS011;74129;52.540;13.416;2024-02-21T05:54:20;9.60;;;4.90;;
84042;SDS011;74129;52.540;13.416;2024-02-21T05:56:46;9.90;;;5.40;;
84042;SDS011;74129;52.540;13.416;2024-02-21T05:59:13;13.40;;;5.50;;
84042;SDS011;74129;52.540;13.416;2024-02-21T06:01:39;16.20;;;6.20;;
84042;SDS011;74129;52.540;13.416;2024-02-21T06:04:05;12.60;;;5.20;;
84042;SDS011;74129;52.540;13.416;2024-02-21T06:06:32;11.80;;;4.90;;
84042;SDS011;74129;52.540;13.416;2024-02-21T06:08:58;12.70;;;6.30;;
84042;SDS011;74129;52.540;13.416;2024-02-21T06:11:25;13.70;;;5.30;;
84042;SDS011;74129;52.540;13.416;2024-02-21T06:13:52;11.30;;;5.00;;
84042;SDS011;74129;52.540;13.416;2024-02-21T06:16:18;15.80;;;6.20;;
84042;SDS011;74129;52.540;13.416;2024-02-21T06:18:44;15.30;;;5.50;;
84042;SDS011;74129;52.540;13.416;2024-02-21T06:21:10;14.30;;;5.30;;
84042;SDS011;74129;52.540;13.416;2024-02-21T06:23:38;14.70;;;6.00;;
84042;SDS011;74129;52.540;13.416;2024-02-21T06:26:05;19.50;;;6.00;;
84042;SDS011;74129;52.540;13.416;2024-02-21T06:28:31;14.90;;;6.10;;
84042;SDS011;74129;52.540;13.416;2024-02-21T06:30:57;13.30;;;5.00;;
84042;SDS011;74129;52.540;13.416;2024-02-21T06:33:24;8.70;;;4.90;;
84042;SDS011;74129;52.540;13.416;2024-02-21T06:35:51;16.40;;;6.30;;
84042;SDS011;74129;52.540;13.416;2024-02-21T06:38:19;11.50;;;4.90;;
84042;SDS011;74129;52.540;13.416;2024-02-21T06:40:45;12.30;;;6.20;;
84042;SDS011;74129;52.540;13.416;2024-02-21T06:43:20;12.60;;;5.90;;
84042;SDS011;74129;52.540;13.416;2024-02-21T06:45:46;12.00;;;6.10;;
84042;SDS011;74129;52.540;13.416;2024-02-21T06:48:19;11.10;;;5.30;;
84042;SDS011;74129;52.540;13.416;2024-02-21T06:50:46;20.90;;;6.40;;
84042;SDS011;74129;52.540;13.416;2024-02-21T06:53:12;13.10;;;5.40;;
84042;SDS011;74129;52.540;13.416;2024-02-21T06:55:38;13.60;;;5.30;;
84042;SDS011;74129;52.540;13.416;2024-02-21T06:58:05;17.80;;;7.30;;
84042;SDS011;74129;52.540;13.416;2024-02-21T07:00:31;13.80;;;7.10;;
84042;SDS011;74129;52.540;13.416;2024-02-21T07:02:58;15.50;;;4.90;;
84042;SDS011;74129;52.540;13.416;2024-02-21T07:05:24;13.70;;;5.70;;
84042;SDS011;74129;52.540;13.416;2024-02-21T07:07:50;14.20;;;6.90;;
84042;SDS011;74129;52.540;13.416;2024-02-21T07:10:17;14.80;;;6.10;;
84042;SDS011;74129;52.540;13.416;2024-02-21T07:12:43;11.60;;;6.40;;
84042;SDS011;74129;52.540;13.416;2024-02-21T07:15:10;14.40;;;6.70;;
84042;SDS011;74129;52.540;13.416;2024-02-21T07:17:36;15.40;;;5.60;;
84042;SDS011;74129;52.540;13.416;2024-02-21T07:20:03;13.10;;;5.10;;
84042;SDS011;74129;52.540;13.416;2024-02-21T07:22:29;11.20;;;5.70;;
84042;SDS011;74129;52.540;13.416;2024-02-21T07:24:56;12.50;;;4.60;;
84042;SDS011;74129;52.540;13.416;2024-02-21T07:27:22;17.80;;;7.70;;
84042;SDS011;74129;52.540;13.416;2024-02-21T07:29:49;10.60;;;4.70;;
84042;SDS011;74129;52.540;13.416;2024-02-21T07:32:15;14.00;;;6.80;;
84042;SDS011;74129;52.540;13.416;2024-02-21T07:34:42;18.80;;;6.70;;
84042;SDS011;74129;52.540;13.416;2024-02-21T07:37:09;14.20;;;6.20;;
84042;SDS011;74129;52.540;13.416;2024-02-21T07:39:35;13.30;;;6.10;;
84042;SDS011;74129;52.540;13.416;2024-02-21T07:42:03;13.40;;;6.50;;
84042;SDS011;74129;52.540;13.416;2024-02-21T07:44:30;16.70;;;6.30;;
84042;SDS011;74129;52.540;13.416;2024-02-21T07:46:58;12.30;;;6.10;;
84042;SDS011;74129;52.540;13.416;2024-02-21T07:49:24;15.70;;;7.30;;
84042;SDS011;74129;52.540;13.416;2024-02-21T07:51:51;15.50;;;6.10;;
84042;SDS011;74129;52.540;13.416;2024-02-21T07:54:18;13.00;;;5.80;;
84042;SDS011;74129;52.540;13.416;2024-02-21T07:56:44;14.00;;;6.00;;
84042;SDS011;74129;52.540;13.416;2024-02-21T07:59:11;13.70;;;6.00;;
84042;SDS011;74129;52.540;13.416;2024-02-21T08:01:39;15.20;;;6.40;;
84042;SDS011;74129;52.540;13.416;2024-02-21T08:04:06;15.80;;;6.80;;
84042;SDS011;74129;52.540;13.416;2024-02-21T08:06:32;11.70;;;5.00;;
84042;SDS011;74129;52.540;13.416;2024-02-21T08:08:59;15.10;;;6.80;;
84042;SDS011;74129;52.540;13.416;2024-02-21T08:11:26;12.70;;;6.40;;
84042;SDS011;74129;52.540;13.416;2024-02-21T08:13:53;10.40;;;5.70;;
84042;SDS011;74129;52.540;13.416;2024-02-21T08:16:19;8.90;;;5.30;;
84042;SDS011;74129;52.540;13.416;2024-02-21T08:18:45;13.10;;;6.30;;
84042;SDS011;74129;52.540;13.416;2024-02-21T08:21:12;11.80;;;5.90;;
84042;SDS011;74129;52.540;13.416;2024-02-21T08:23:38;12.80;;;6.10;;
84042;SDS011;74129;52.540;13.416;2024-02-21T08:26:04;14.10;;;5.80;;
84042;SDS011;74129;52.540;13.416;2024-02-21T08:28:31;14.50;;;6.10;;
84042;SDS011;74129;52.540;13.416;2024-02-21T08:30:57;18.00;;;6.00;;
84042;SDS011;74129;52.540;13.416;2024-02-21T08:33:24;15.50;;;5.60;;
84042;SDS011;74129;52.540;13.416;2024-02-21T08:35:51;14.20;;;5.50;;
84042;SDS011;74129;52.540;13.416;2024-02-21T08:38:18;14.50;;;6.20;;
84042;SDS011;74129;52.540;13.416;2024-02-21T08:40:45;9.20;;;5.30;;
84042;SDS011;74129;52.540;13.416;2024-02-21T08:43:11;15.40;;;6.00;;
84042;SDS011;74129;52.540;13.416;2024-02-21T08:45:37;18.10;;;7.00;;
84042;SDS011;74129;52.540;13.416;2024-02-21T08:48:04;8.00;;;5.30;;
84042;SDS011;74129;52.540;13.416;2024-02-21T08:50:31;15.10;;;6.20;;
84042;SDS011;74129;52.540;13.416;2024-02-21T08:52:57;12.10;;;5.20;;
84042;SDS011;74129;52.540;13.416;2024-02-21T08:55:24;14.30;;;6.40;;
84042;SDS011;74129;52.540;13.416;2024-02-21T08:57:50;12.70;;;5.80;;
84042;SDS011;74129;52.540;13.416;2024-02-21T09:00:16;14.30;;;6.10;;
84042;SDS011;74129;52.540;13.416;2024-02-21T09:02:43;17.80;;;7.30;;
84042;SDS011;74129;52.540;13.416;2024-02-21T09:05:09;10.20;;;6.30;;
84042;SDS011;74129;52.540;13.416;2024-02-21T09:07:36;10.10;;;5.70;;
84042;SDS011;74129;52.540;13.416;2024-02-21T09:10:03;14.70;;;7.10;;
84042;SDS011;74129;52.540;13.416;2024-02-21T09:12:30;13.60;;;5.80;;
84042;SDS011;74129;52.540;13.416;2024-02-21T09:14:57;12.90;;;7.10;;
84042;SDS011;74129;52.540;13.416;2024-02-21T09:17:23;19.10;;;7.60;;
84042;SDS011;74129;52.540;13.416;2024-02-21T09:19:51;12.50;;;5.60;;
84042;SDS011;74129;52.540;13.416;2024-02-21T09:22:18;14.00;;;5.60;;
84042;SDS011;74129;52.540;13.416;2024-02-21T09:24:44;12.90;;;6.30;;
84042;SDS011;74129;52.540;13.416;2024-02-21T09:27:11;12.80;;;7.10;;
84042;SDS011;74129;52.540;13.416;2024-02-21T09:29:37;13.20;;;6.40;;
84042;SDS011;74129;52.540;13.416;2024-02-21T09:32:05;14.30;;;6.00;;
84042;SDS011;74129;52.540;13.416;2024-02-21T09:34:32;16.80;;;7.20;;
84042;SDS011;74129;52.540;13.416;2024-02-21T09:36:59;12.00;;;6.10;;
84042;SDS011;74129;52.540;13.416;2024-02-21T09:39:25;10.00;;;5.60;;
84042;SDS011;74129;52.540;13.416;2024-02-21T09:41:53;13.40;;;7.60;;
84042;SDS011;74129;52.540;13.416;2024-02-21T09:44:24;29.00;;;7.40;;
84042;SDS011;74129;52.540;13.416;2024-02-21T09:47:02;13.20;;;6.90;;
84042;SDS011;74129;52.540;13.416;2024-02-21T09:49:31;12.10;;;6.80;;
84042;SDS011;74129;52.540;13.416;2024-02-21T09:52:02;10.20;;;6.00;;
84042;SDS011;74129;52.540;13.416;2024-02-21T09:54:32;15.50;;;7.10;;
84042;SDS011;74129;52.540;13.416;2024-02-21T09:57:02;9.60;;;5.70;;
84042;SDS011;74129;52.540;13.416;2024-02-21T09:59:30;13.60;;;7.20;;
84042;SDS011;74129;52.540;13.416;2024-02-21T10:01:57;14.50;;;5.90;;
84042;SDS011;74129;52.540;13.416;2024-02-21T10:04:26;15.60;;;7.50;;
84042;SDS011;74129;52.540;13.416;2024-02-21T10:06:53;14.80;;;6.90;;
84042;SDS011;74129;52.540;13.416;2024-02-21T10:09:26;15.40;;;7.60;;
84042;SDS011;74129;52.540;13.416;2024-02-21T10:11:55;10.50;;;5.90;;
84042;SDS011;74129;52.540;13.416;2024-02-21T10:14:22;11.30;;;5.60;;
84042;SDS011;74129;52.540;13.416;2024-02-21T10:16:49;14.10;;;7.10;;
84042;SDS011;74129;52.540;13.416;2024-02-21T10:19:26;13.90;;;6.20;;
84042;SDS011;74129;52.540;13.416;2024-02-21T10:22:02;11.20;;;6.70;;
84042;SDS011;74129;52.540;13.416;2024-02-21T10:24:34;14.70;;;6.60;;
84042;SDS011;74129;52.540;13.416;2024-02-21T10:27:04;14.80;;;5.80;;
84042;SDS011;74129;52.540;13.416;2024-02-21T10:29:35;11.80;;;6.70;;
84042;SDS011;74129;52.540;13.416;2024-02-21T10:32:08;15.80;;;8.00;;
84042;SDS011;74129;52.540;13.416;2024-02-21T10:34:37;15.40;;;6.50;;
84042;SDS011;74129;52.540;13.416;2024-02-21T10:37:08;15.30;;;6.60;;
84042;SDS011;74129;52.540;13.416;2024-02-21T10:39:37;10.20;;;6.00;;
84042;SDS011;74129;52.540;13.416;2024-02-21T10:42:05;12.70;;;5.70;;
84042;SDS011;74129;52.540;13.416;2024-02-21T10:44:32;14.20;;;6.10;;
84042;SDS011;74129;52.540;13.416;2024-02-21T10:47:04;9.50;;;5.70;;
84042;SDS011;74129;52.540;13.416;2024-02-21T10:49:36;13.20;;;6.60;;
84042;SDS011;74129;52.540;13.416;2024-02-21T10:52:14;12.50;;;6.20;;
84042;SDS011;74129;52.540;13.416;2024-02-21T10:55:03;10.10;;;6.10;;
84042;SDS011;74129;52.540;13.416;2024-02-21T10:57:33;12.40;;;6.00;;
84042;SDS011;74129;52.540;13.416;2024-02-21T11:00:00;14.30;;;7.10;;
84042;SDS011;74129;52.540;13.416;2024-02-21T11:02:29;11.80;;;6.30;;
84042;SDS011;74129;52.540;13.416;2024-02-21T11:04:57;15.70;;;7.00;;
84042;SDS011;74129;52.540;13.416;2024-02-21T11:07:25;9.30;;;5.30;;
84042;SDS011;74129;52.540;13.416;2024-02-21T11:09:52;11.80;;;5.90;;
84042;SDS011;74129;52.540;13.416;2024-02-21T11:12:21;10.00;;;5.70;;
84042;SDS011;74129;52.540;13.416;2024-02-21T11:14:48;8.20;;;5.50;;
84042;SDS011;74129;52.540;13.416;2024-02-21T11:17:17;10.60;;;6.10;;
84042;SDS011;74129;52.540;13.416;2024-02-21T11:19:45;11.00;;;6.20;;
84042;SDS011;74129;52.540;13.416;2024-02-21T11:22:18;8.10;;;4.60;;
84042;SDS011;74129;52.540;13.416;2024-02-21T11:24:46;10.70;;;5.20;;
84042;SDS011;74129;52.540;13.416;2024-02-21T11:29:47;12.00;;;5.50;;
84042;SDS011;74129;52.540;13.416;2024-02-21T11:32:17;10.80;;;6.00;;
84042;SDS011;74129;52.540;13.416;2024-02-21T11:34:59;8.80;;;5.50;;
84042;SDS011;74129;52.540;13.416;2024-02-21T11:37:31;14.40;;;6.70;;
84042;SDS011;74129;52.540;13.416;2024-02-21T11:40:05;10.20;;;5.40;;
84042;SDS011;74129;52.540;13.416;2024-02-21T11:42:35;12.40;;;4.20;;
84042;SDS011;74129;52.540;13.416;2024-02-21T11:45:02;7.50;;;5.20;;
84042;SDS011;74129;52.540;13.416;2024-02-21T11:47:28;9.90;;;5.60;;
84042;SDS011;74129;52.540;13.416;2024-02-21T11:49:55;8.80;;;4.00;;
84042;SDS011;74129;52.540;13.416;2024-02-21T11:52:21;11.20;;;4.80;;
84042;SDS011;74129;52.540;13.416;2024-02-21T11:54:51;9.00;;;4.80;;
84042;SDS011;74129;52.540;13.416;2024-02-21T11:57:23;10.50;;;5.10;;
84042;SDS011;74129;52.540;13.416;2024-02-21T11:59:50;6.50;;;3.30;;
84042;SDS011;74129;52.540;13.416;2024-02-21T12:02:18;7.90;;;4.10;;
84042;SDS011;74129;52.540;13.416;2024-02-21T12:04:44;7.90;;;3.60;;
84042;SDS011;74129;52.540;13.416;2024-02-21T12:07:11;6.40;;;4.10;;
84042;SDS011;74129;52.540;13.416;2024-02-21T12:09:37;10.50;;;4.20;;
84042;SDS011;74129;52.540;13.416;2024-02-21T12:12:04;5.30;;;4.00;;
84042;SDS011;74129;52.540;13.416;2024-02-21T12:14:32;6.10;;;4.30;;
84042;SDS011;74129;52.540;13.416;2024-02-21T12:17:00;7.70;;;4.20;;
84042;SDS011;74129;52.540;13.416;2024-02-21T12:19:30;6.60;;;4.30;;
84042;SDS011;74129;52.540;13.416;2024-02-21T12:21:58;7.10;;;4.50;;
84042;SDS011;74129;52.540;13.416;2024-02-21T12:24:26;9.10;;;4.30;;
84042;SDS011;74129;52.540;13.416;2024-02-21T12:26:54;10.90;;;4.30;;
84042;SDS011;74129;52.540;13.416;2024-02-21T12:29:22;8.80;;;4.40;;
84042;SDS011;74129;52.540;13.416;2024-02-21T12:31:51;8.50;;;4.20;;
84042;SDS011;74129;52.540;13.416;2024-02-21T12:34:18;6.10;;;4.10;;
84042;SDS011;74129;52.540;13.416;2024-02-21T12:36:45;10.50;;;3.90;;
84042;SDS011;74129;52.540;13.416;2024-02-21T12:39:14;7.90;;;4.00;;
84042;SDS011;74129;52.540;13.416;2024-02-21T12:41:41;7.60;;;3.70;;
84042;SDS011;74129;52.540;13.416;2024-02-21T12:44:10;7.70;;;3.70;;
84042;SDS011;74129;52.540;13.416;2024-02-21T12:46:37;6.10;;;3.50;;
84042;SDS011;74129;52.540;13.416;2024-02-21T12:49:05;7.40;;;3.50;;
84042;SDS011;74129;52.540;13.416;2024-02-21T12:51:34;7.80;;;3.40;;
84042;SDS011;74129;52.540;13.416;2024-02-21T12:54:01;9.90;;;4.60;;
84042;SDS011;74129;52.540;13.416;2024-02-21T12:56:29;7.50;;;3.50;;
84042;SDS011;74129;52.540;13.416;2024-02-21T12:58:57;5.30;;;3.20;;
84042;SDS011;74129;52.540;13.416;2024-02-21T13:01:24;5.70;;;3.40;;
84042;SDS011;74129;52.540;13.416;2024-02-21T13:03:50;5.70;;;3.20;;
84042;SDS011;74129;52.540;13.416;2024-02-21T13:06:17;6.40;;;3.60;;
84042;SDS011;74129;52.540;13.416;2024-02-21T13:08:45;9.30;;;3.30;;
84042;SDS011;74129;52.540;13.416;2024-02-21T13:11:12;9.90;;;3.70;;
84042;SDS011;74129;52.540;13.416;2024-02-21T13:13:39;8.50;;;3.30;;
84042;SDS011;74129;52.540;13.416;2024-02-21T13:16:06;7.70;;;3.70;;
84042;SDS011;74129;52.540;13.416;2024-02-21T13:18:34;7.40;;;4.00;;
84042;SDS011;74129;52.540;13.416;2024-02-21T13:21:01;11.70;;;4.10;;
84042;SDS011;74129;52.540;13.416;2024-02-21T13:23:28;9.30;;;3.20;;
84042;SDS011;74129;52.540;13.416;2024-02-21T13:25:54;7.00;;;3.60;;
84042;SDS011;74129;52.540;13.416;2024-02-21T13:28:21;3.30;;;2.40;;
84042;SDS011;74129;52.540;13.416;2024-02-21T13:30:47;5.90;;;3.10;;
84042;SDS011;74129;52.540;13.416;2024-02-21T13:33:14;8.90;;;3.50;;
84042;SDS011;74129;52.540;13.416;2024-02-21T13:35:40;8.70;;;4.10;;
84042;SDS011;74129;52.540;13.416;2024-02-21T13:38:06;10.10;;;3.70;;
84042;SDS011;74129;52.540;13.416;2024-02-21T13:40:33;9.80;;;4.00;;
84042;SDS011;74129;52.540;13.416;2024-02-21T13:43:00;7.30;;;3.50;;
84042;SDS011;74129;52.540;13.416;2024-02-21T13:45:27;7.10;;;3.50;;
84042;SDS011;74129;52.540;13.416;2024-02-21T13:47:53;10.60;;;3.80;;
84042;SDS011;74129;52.540;13.416;2024-02-21T13:50:21;7.40;;;3.60;;
84042;SDS011;74129;52.540;13.416;2024-02-21T13:52:50;6.70;;;3.20;;
84042;SDS011;74129;52.540;13.416;2024-02-21T13:55:16;6.60;;;3.60;;
84042;SDS011;74129;52.540;13.416;2024-02-21T13:57:42;13.10;;;4.40;;
84042;SDS011;74129;52.540;13.416;2024-02-21T14:00:09;8.00;;;4.00;;
84042;SDS011;74129;52.540;13.416;2024-02-21T14:02:37;8.90;;;3.40;;
84042;SDS011;74129;52.540;13.416;2024-02-21T14:05:03;7.70;;;4.10;;
84042;SDS011;74129;52.540;13.416;2024-02-21T14:07:32;8.80;;;4.40;;
84042;SDS011;74129;52.540;13.416;2024-02-21T14:12:29;7.70;;;3.60;;
84042;SDS011;74129;52.540;13.416;2024-02-21T14:14:56;8.70;;;3.70;;
84042;SDS011;74129;52.540;13.416;2024-02-21T14:17:24;7.60;;;3.60;;
84042;SDS011;74129;52.540;13.416;2024-02-21T14:19:51;6.30;;;3.40;;
84042;SDS011;74129;52.540;13.416;2024-02-21T14:22:17;8.80;;;3.70;;
84042;SDS011;74129;52.540;13.416;2024-02-21T14:24:44;5.80;;;3.20;;
84042;SDS011;74129;52.540;13.416;2024-02-21T14:27:11;5.00;;;2.80;;
84042;SDS011;74129;52.540;13.416;2024-02-21T14:29:38;7.80;;;3.30;;